Wednesday, November 22, 2017, 9:06 AM GMT
Back to Local

CWTN, Cap Tourmente

Location: , , Canada Lat: 47.067
Local Time: 9:06 AM GMT ( 9:06 GMT) Lon: -70.8
Time Zone: GMT Elev: 19 ft

Show me the last for .
Show Coded

Time T Td Feel RH Dir Speed Gust Alt SLP Vis Weather Sky Remarks
2017-11-22 08:00 30 29 26 95 270° 3 - - 29.87 0 None
2017-11-22 07:00 27 27 - 98 280° 1 - - 29.87 0 None
2017-11-22 06:00 27 27 22 99 260° 5 - - 29.85 0 None
2017-11-22 05:00 25 25 - 100 270° 2 - - 29.85 0 None
2017-11-22 04:00 24 24 - 100 290° 1 - - 29.84 0 None
2017-11-22 03:00 23 23 - 100 340° 2 - - 29.83 0 None
2017-11-22 02:00 23 23 - 100 290° 1 - - 29.83 0 None
2017-11-22 01:00 22 22 - 99 20° 1 - - 29.82 0 None
2017-11-22 00:00 24 23 - 95 310° 1 - - 29.83 0 None
2017-11-21 23:00 26 24 - 92 20° 1 - - 29.81 0 None
2017-11-21 22:00 28 24 - 85 280° 1 - - 29.80 0 None
2017-11-21 21:00 29 24 - 79 240° 1 - - 29.80 0 None
2017-11-21 20:00 29 23 24 77 90° 5 - - 29.80 0 None
2017-11-21 19:00 31 23 27 71 100° 5 - - 29.81 0 None
2017-11-21 18:00 29 20 25 70 100° 3 - - 29.82 0 None
2017-11-21 17:00 29 19 25 67 130° 3 - - 29.83 0 None
2017-11-21 16:00 27 18 23 66 110° 3 - - 29.86 0 None
2017-11-21 15:00 25 14 - 64 260° 1 - - 29.90 0 None
2017-11-21 14:00 23 13 - 63 260° 1 - - 29.94 0 None
2017-11-21 13:00 22 13 - 67 - Calm - - 29.95 0 None
2017-11-21 12:00 21 12 15 67 260° 5 - - 29.98 0 None
2017-11-21 11:00 19 11 11 70 260° 6 - - 29.98 0 None
2017-11-21 10:00 18 10 12 71 260° 3 - - 29.99 0 None

Support USWX by starting your Amazon purchase here.